createdAt,value
2022-09-06T00:01:01.603Z,0.50
2022-09-06T00:03:28.211Z,0.50
2022-09-06T00:05:54.535Z,0.60
2022-09-06T00:08:20.824Z,0.50
2022-09-06T00:10:47.281Z,0.50
2022-09-06T00:13:14.214Z,0.50
2022-09-06T00:15:40.594Z,0.50
2022-09-06T00:18:07.180Z,0.60
2022-09-06T00:20:34.592Z,0.60
2022-09-06T00:23:02.067Z,0.60
2022-09-06T00:25:29.344Z,0.60
2022-09-06T00:28:02.711Z,0.70
2022-09-06T00:30:29.595Z,0.70
2022-09-06T00:32:56.336Z,0.70
2022-09-06T00:35:24.675Z,0.77
2022-09-06T00:37:51.866Z,0.80
2022-09-06T00:40:18.516Z,0.80
2022-09-06T00:42:44.842Z,0.80
2022-09-06T00:45:11.749Z,0.80
2022-09-06T00:47:39.686Z,0.80
2022-09-06T00:50:06.118Z,0.83
2022-09-06T00:52:33.533Z,0.87
2022-09-06T00:54:59.841Z,0.80
2022-09-06T00:57:27.207Z,0.80
2022-09-06T00:59:54.583Z,0.90
2022-09-06T01:02:21.352Z,0.87
2022-09-06T01:04:48.462Z,0.90
2022-09-06T01:07:35.282Z,0.80
2022-09-06T01:10:20.285Z,0.80
2022-09-06T01:12:49.610Z,0.80
2022-09-06T01:15:15.843Z,0.90
2022-09-06T01:17:50.593Z,0.83
2022-09-06T01:20:16.815Z,0.90
2022-09-06T01:22:52.622Z,0.80
2022-09-06T01:25:37.716Z,0.80
2022-09-06T01:28:18.975Z,0.80
2022-09-06T01:30:53.786Z,0.80
2022-09-06T01:33:24.721Z,0.77
2022-09-06T01:35:53.233Z,0.80
2022-09-06T01:38:19.525Z,0.80
2022-09-06T01:40:45.763Z,0.87
2022-09-06T01:43:13.680Z,0.90
2022-09-06T01:45:55.384Z,0.80
2022-09-06T01:48:30.830Z,0.80
2022-09-06T01:50:58.737Z,0.90
2022-09-06T01:53:33.708Z,1.00
2022-09-06T01:56:18.802Z,0.90
2022-09-06T01:58:45.112Z,0.90
2022-09-06T02:01:14.456Z,0.90
2022-09-06T02:03:49.932Z,0.90
2022-09-06T02:06:36.508Z,0.90
2022-09-06T02:09:05.595Z,0.90
2022-09-06T02:11:34.457Z,0.90
2022-09-06T02:14:03.242Z,0.80
2022-09-06T02:16:30.812Z,0.80
2022-09-06T02:19:00.314Z,0.90
2022-09-06T02:21:30.096Z,0.90
2022-09-06T02:23:59.401Z,0.90
2022-09-06T02:26:27.515Z,0.80
2022-09-06T02:28:54.350Z,0.90
2022-09-06T02:31:27.481Z,0.90
2022-09-06T02:33:53.891Z,0.90
2022-09-06T02:36:20.908Z,0.90
2022-09-06T02:38:47.586Z,0.90
2022-09-06T02:41:18.497Z,0.90
2022-09-06T02:43:44.822Z,0.90
2022-09-06T02:46:12.063Z,0.90
2022-09-06T02:48:38.362Z,0.90
2022-09-06T02:51:05.490Z,1.00
2022-09-06T02:53:32.152Z,0.90
2022-09-06T02:55:58.429Z,0.90
2022-09-06T02:58:24.784Z,0.90
2022-09-06T03:00:51.548Z,0.90
2022-09-06T03:03:17.844Z,0.93
2022-09-06T03:05:48.101Z,1.00
2022-09-06T03:08:14.372Z,0.93
2022-09-06T03:10:40.620Z,1.00
2022-09-06T03:13:07.155Z,1.00
2022-09-06T03:15:33.431Z,0.90
2022-09-06T03:17:59.725Z,1.00
2022-09-06T03:20:26.081Z,1.00
2022-09-06T03:22:52.338Z,1.00
2022-09-06T03:25:18.614Z,1.00
2022-09-06T03:27:44.904Z,1.00
2022-09-06T03:30:11.394Z,1.00
2022-09-06T03:32:37.678Z,1.00
2022-09-06T03:35:04.085Z,1.00
2022-09-06T03:37:30.386Z,1.00
2022-09-06T03:39:56.739Z,1.00
2022-09-06T03:42:23.137Z,1.10
2022-09-06T03:44:49.463Z,1.10
2022-09-06T03:47:19.455Z,1.10
2022-09-06T03:49:46.663Z,1.10
2022-09-06T03:52:12.999Z,1.10
2022-09-06T03:54:39.392Z,1.10
2022-09-06T03:57:05.724Z,1.10
2022-09-06T03:59:32.045Z,1.10
2022-09-06T04:01:58.424Z,1.13
2022-09-06T04:04:24.762Z,1.20
2022-09-06T04:06:51.056Z,1.20
2022-09-06T04:09:17.331Z,1.10
2022-09-06T04:11:45.108Z,1.10
2022-09-06T04:14:11.609Z,1.10
2022-09-06T04:16:37.953Z,1.17
2022-09-06T04:19:04.544Z,1.10
2022-09-06T04:21:31.222Z,1.17
2022-09-06T04:23:57.530Z,1.20
2022-09-06T04:26:23.877Z,1.20
2022-09-06T04:28:50.247Z,1.20
2022-09-06T04:31:16.607Z,1.30
2022-09-06T04:33:43.125Z,1.20
2022-09-06T04:36:10.748Z,1.20
2022-09-06T04:38:38.145Z,1.20
2022-09-06T04:41:05.095Z,1.20
2022-09-06T04:43:31.682Z,1.20
2022-09-06T04:46:05.037Z,1.20
2022-09-06T04:48:31.351Z,1.20
2022-09-06T04:50:57.646Z,1.30
2022-09-06T04:53:23.925Z,1.20
2022-09-06T04:55:50.241Z,1.20
2022-09-06T04:58:16.553Z,1.20
2022-09-06T05:00:44.898Z,1.30
2022-09-06T05:03:11.287Z,1.20
2022-09-06T05:05:37.570Z,1.30
2022-09-06T05:08:03.935Z,1.20
2022-09-06T05:10:30.945Z,1.30
2022-09-06T05:12:57.241Z,1.30
2022-09-06T05:15:23.859Z,1.30
2022-09-06T05:17:50.157Z,1.30
2022-09-06T05:20:16.902Z,1.30
2022-09-06T05:22:43.254Z,1.20
2022-09-06T05:25:10.233Z,1.20
2022-09-06T05:27:36.551Z,1.30
2022-09-06T05:30:04.072Z,1.30
2022-09-06T05:32:30.526Z,1.30
2022-09-06T05:34:56.815Z,1.30
2022-09-06T05:37:23.170Z,1.30
2022-09-06T05:39:49.492Z,1.30
2022-09-06T05:42:19.147Z,1.20
2022-09-06T05:44:45.978Z,1.30
2022-09-06T05:47:12.341Z,1.30
2022-09-06T05:49:38.679Z,1.30
2022-09-06T05:52:05.029Z,1.30
2022-09-06T05:54:31.787Z,1.20
2022-09-06T05:56:58.034Z,1.30
2022-09-06T05:59:24.377Z,1.30
2022-09-06T06:01:53.815Z,1.23
2022-09-06T06:04:20.664Z,1.20
2022-09-06T06:06:47.193Z,1.30
2022-09-06T06:09:13.929Z,1.30
2022-09-06T06:11:40.824Z,1.30
2022-09-06T06:14:09.551Z,1.23
2022-09-06T06:16:35.916Z,1.30
2022-09-06T06:19:02.383Z,1.20
2022-09-06T06:21:29.841Z,1.20
2022-09-06T06:23:58.048Z,1.20
2022-09-06T06:26:24.891Z,1.20
2022-09-06T06:28:51.706Z,1.30
2022-09-06T06:31:19.326Z,1.20
2022-09-06T06:33:46.332Z,1.20
2022-09-06T06:36:13.157Z,1.20
2022-09-06T06:38:40.400Z,1.13
2022-09-06T06:41:07.650Z,1.20
2022-09-06T06:43:37.688Z,1.20
2022-09-06T06:46:05.030Z,1.20
2022-09-06T06:48:31.613Z,1.20
2022-09-06T06:50:58.227Z,1.20
2022-09-06T06:53:24.854Z,1.20
2022-09-06T06:55:51.135Z,1.20
2022-09-06T06:58:17.856Z,1.17
2022-09-06T07:00:44.900Z,1.20
2022-09-06T07:03:11.850Z,1.17
2022-09-06T07:08:25.198Z,1.13
2022-09-06T07:10:51.471Z,1.10
2022-09-06T07:13:18.863Z,1.20
2022-09-06T07:15:45.131Z,1.10
2022-09-06T07:18:11.667Z,1.20
2022-09-06T07:26:15.398Z,1.17
2022-09-06T07:28:41.768Z,1.10
2022-09-06T07:33:55.761Z,1.10
2022-09-06T07:36:22.184Z,1.10
2022-09-06T07:38:49.821Z,1.00
2022-09-06T07:41:17.446Z,1.10
2022-09-06T07:43:43.898Z,1.10
2022-09-06T07:46:11.615Z,1.10
2022-09-06T07:48:41.293Z,1.00
2022-09-06T07:51:12.240Z,1.10
2022-09-06T07:53:39.790Z,1.00
2022-09-06T07:56:07.087Z,1.00
2022-09-06T07:58:33.813Z,1.00
2022-09-06T08:01:15.597Z,1.00
2022-09-06T08:03:42.003Z,1.00
2022-09-06T08:06:08.288Z,1.00
2022-09-06T08:11:22.626Z,0.90
2022-09-06T08:13:50.163Z,1.00
2022-09-06T08:16:17.018Z,0.90
2022-09-06T08:18:43.457Z,0.90
2022-09-06T08:21:12.626Z,1.00
2022-09-06T08:23:42.566Z,1.10
2022-09-06T08:26:09.067Z,0.90
2022-09-06T08:28:35.345Z,0.90
2022-09-06T08:31:08.685Z,1.00
2022-09-06T08:33:35.085Z,0.90
2022-09-06T08:36:01.499Z,0.90
2022-09-06T08:38:28.030Z,0.90
2022-09-06T08:40:55.329Z,0.90
2022-09-06T08:43:22.209Z,0.80
2022-09-06T08:45:55.844Z,0.90
2022-09-06T08:48:24.103Z,0.90
2022-09-06T08:51:10.668Z,0.90
2022-09-06T08:53:39.808Z,0.80
2022-09-06T08:56:13.297Z,0.80
2022-09-06T08:58:58.330Z,0.80
2022-09-06T09:01:27.503Z,0.80
2022-09-06T09:03:57.173Z,0.80
2022-09-06T09:06:23.718Z,0.80
2022-09-06T09:09:10.801Z,0.70
2022-09-06T09:11:39.060Z,0.80
2022-09-06T09:14:12.360Z,0.80
2022-09-06T09:16:38.742Z,0.70
2022-09-06T09:19:05.749Z,0.70
2022-09-06T09:21:39.988Z,0.83
2022-09-06T09:24:07.932Z,0.70
2022-09-06T09:26:52.597Z,0.70
2022-09-06T09:29:22.722Z,0.70
2022-09-06T09:31:55.271Z,0.70
2022-09-06T09:34:33.211Z,0.70
2022-09-06T09:39:59.115Z,0.60
2022-09-06T09:42:29.844Z,0.60
2022-09-06T09:44:56.789Z,0.70
2022-09-06T09:47:30.630Z,0.60
2022-09-06T09:49:57.481Z,0.60
2022-09-06T09:52:29.185Z,0.60
2022-09-06T09:55:03.272Z,0.60
2022-09-06T09:57:43.655Z,0.60
2022-09-06T10:00:13.221Z,0.60
2022-09-06T10:02:43.163Z,0.60
2022-09-06T10:05:17.757Z,0.60
2022-09-06T10:07:45.803Z,0.50
2022-09-06T10:10:22.903Z,0.60
2022-09-06T10:12:50.854Z,0.50
2022-09-06T10:15:36.879Z,0.53
2022-09-06T10:18:03.586Z,0.50
2022-09-06T10:20:42.111Z,0.50
2022-09-06T10:26:10.665Z,0.40
2022-09-06T10:28:41.645Z,0.40
2022-09-06T10:31:27.198Z,0.70
2022-09-06T10:34:01.980Z,0.40
2022-09-06T10:36:32.052Z,0.37
2022-09-06T10:39:03.475Z,0.40
2022-09-06T10:41:54.422Z,0.30
2022-09-06T10:44:47.063Z,0.30
2022-09-06T10:47:14.500Z,0.40
2022-09-06T10:49:42.648Z,0.30
2022-09-06T10:52:11.988Z,0.30
2022-09-06T10:54:40.277Z,0.30
2022-09-06T11:00:14.665Z,0.30
2022-09-06T11:02:45.993Z,0.30
2022-09-06T11:05:42.349Z,0.30
2022-09-06T11:11:02.164Z,0.30
2022-09-06T11:13:28.534Z,0.30
2022-09-06T11:16:09.162Z,0.20
2022-09-06T11:18:53.945Z,0.20
2022-09-06T11:21:44.917Z,0.20
2022-09-06T11:24:12.489Z,0.20
2022-09-06T11:26:57.230Z,0.20
2022-09-06T11:29:25.359Z,0.20
2022-09-06T11:34:51.690Z,0.20
2022-09-06T11:37:26.288Z,0.20
2022-09-06T11:42:52.186Z,0.10
2022-09-06T11:45:22.912Z,0.10
2022-09-06T11:47:52.547Z,0.10
2022-09-06T11:50:21.827Z,0.13
2022-09-06T11:53:06.535Z,0.13
2022-09-06T11:55:38.057Z,0.10
2022-09-06T11:58:19.534Z,0.30
2022-09-06T12:00:46.333Z,0.20
2022-09-06T12:06:31.645Z,0.20
2022-09-06T12:08:58.465Z,0.20
2022-09-06T12:11:33.309Z,0.20
2022-09-06T12:14:04.337Z,0.20
2022-09-06T12:16:49.150Z,0.20
2022-09-06T12:19:34.531Z,0.20
2022-09-06T12:22:00.902Z,0.20
2022-09-06T12:24:33.431Z,0.20
2022-09-06T12:27:18.373Z,0.20
2022-09-06T12:30:08.870Z,0.20
2022-09-06T12:32:40.567Z,0.20
2022-09-06T12:38:02.988Z,0.20
2022-09-06T12:40:31.560Z,0.20
2022-09-06T12:42:58.298Z,0.20
2022-09-06T12:45:27.427Z,0.20
2022-09-06T12:48:08.635Z,0.20
2022-09-06T12:50:34.983Z,0.10
2022-09-06T12:53:02.404Z,0.10
2022-09-06T12:55:36.804Z,0.00
2022-09-06T12:58:05.354Z,0.00
2022-09-06T13:00:34.458Z,0.00
2022-09-06T13:03:27.288Z,0.00
2022-09-06T13:05:55.127Z,0.00
2022-09-06T13:08:33.762Z,0.00
2022-09-06T13:11:00.654Z,0.00
2022-09-06T13:13:27.203Z,0.00
2022-09-06T13:15:54.228Z,0.00
2022-09-06T13:18:27.379Z,0.00
2022-09-06T13:20:57.813Z,0.00
2022-09-06T13:23:24.161Z,0.00
2022-09-06T13:25:51.651Z,0.00
2022-09-06T13:28:28.747Z,0.00
2022-09-06T13:31:19.692Z,0.00
2022-09-06T13:33:55.043Z,0.00
2022-09-06T13:36:23.312Z,0.00
2022-09-06T13:38:51.199Z,0.00
2022-09-06T13:41:26.734Z,0.00
2022-09-06T13:44:06.162Z,0.00
2022-09-06T13:46:33.275Z,0.00
2022-09-06T13:49:00.697Z,0.00
2022-09-06T13:51:27.102Z,0.00
2022-09-06T13:54:05.750Z,0.00
2022-09-06T13:56:32.065Z,0.00
2022-09-06T13:58:58.439Z,0.00
2022-09-06T14:01:24.859Z,0.00
2022-09-06T14:03:51.375Z,0.00
2022-09-06T14:06:17.792Z,0.00
2022-09-06T14:09:05.913Z,0.00
2022-09-06T14:11:30.381Z,0.00
2022-09-06T14:13:56.767Z,0.00
2022-09-06T14:16:23.301Z,0.00
2022-09-06T14:18:50.312Z,0.00
2022-09-06T14:21:16.627Z,0.00
2022-09-06T14:23:42.984Z,0.00
2022-09-06T14:26:10.004Z,0.00
2022-09-06T14:28:36.358Z,0.00
2022-09-06T14:31:09.493Z,0.00
2022-09-06T14:33:35.844Z,0.00
2022-09-06T14:36:05.491Z,0.00
2022-09-06T14:38:31.768Z,0.00
2022-09-06T14:41:02.350Z,0.00
2022-09-06T14:43:28.614Z,0.00
2022-09-06T14:45:54.934Z,0.00
2022-09-06T14:48:22.717Z,0.00
2022-09-06T14:50:49.611Z,0.00
2022-09-06T14:53:38.954Z,0.00
2022-09-06T14:56:03.876Z,0.00
2022-09-06T14:58:31.963Z,0.00
2022-09-06T15:01:10.565Z,0.00
2022-09-06T15:03:37.094Z,0.00
2022-09-06T15:06:06.633Z,0.00
2022-09-06T15:08:32.952Z,0.00
2022-09-06T15:10:59.550Z,0.00
2022-09-06T15:13:26.930Z,0.00
2022-09-06T15:15:56.586Z,0.00
2022-09-06T15:18:23.275Z,0.00
2022-09-06T15:20:49.628Z,0.00
2022-09-06T15:23:24.772Z,0.00
2022-09-06T15:25:52.338Z,0.00
2022-09-06T15:28:19.396Z,0.00
2022-09-06T15:30:46.648Z,0.00
2022-09-06T15:33:14.964Z,0.00
2022-09-06T15:35:43.911Z,0.00
2022-09-06T15:38:11.603Z,0.00
2022-09-06T15:40:38.174Z,0.00
2022-09-06T15:43:04.830Z,0.00
2022-09-06T15:45:32.729Z,0.00
2022-09-06T15:47:59.084Z,0.00
2022-09-06T15:50:49.777Z,0.00
2022-09-06T15:53:13.329Z,0.00
2022-09-06T15:55:58.034Z,0.00
2022-09-06T15:58:25.172Z,0.00
2022-09-06T16:01:01.474Z,0.00
2022-09-06T16:03:28.114Z,0.00
2022-09-06T16:08:41.009Z,0.00
2022-09-06T16:11:17.148Z,0.00
2022-09-06T16:13:44.650Z,0.00
2022-09-06T16:16:14.723Z,0.00
2022-09-06T16:18:42.528Z,0.00
2022-09-06T16:21:10.491Z,0.00
2022-09-06T16:23:36.839Z,0.00
2022-09-06T16:26:04.122Z,0.00
2022-09-06T16:28:31.727Z,0.00
2022-09-06T16:31:05.269Z,0.00
2022-09-06T16:33:32.740Z,0.00
2022-09-06T16:35:59.602Z,0.00
2022-09-06T16:38:27.896Z,0.00
2022-09-06T16:40:54.435Z,0.00
2022-09-06T16:43:20.763Z,0.00
2022-09-06T16:45:57.767Z,0.00
2022-09-06T16:48:24.546Z,0.00
2022-09-06T16:50:51.025Z,0.00
2022-09-06T16:53:21.481Z,0.00
2022-09-06T16:55:48.339Z,0.00
2022-09-06T16:58:14.707Z,0.00
2022-09-06T17:00:41.893Z,0.00
2022-09-06T17:03:08.368Z,0.00
2022-09-06T17:05:35.443Z,0.00
2022-09-06T17:08:01.837Z,0.00
2022-09-06T17:10:28.165Z,0.00
2022-09-06T17:12:54.513Z,0.00
2022-09-06T17:15:21.308Z,0.00
2022-09-06T17:17:47.715Z,0.00
2022-09-06T17:20:17.976Z,0.00
2022-09-06T17:22:44.649Z,0.00
2022-09-06T17:25:12.169Z,0.00
2022-09-06T17:27:38.517Z,0.00
2022-09-06T17:30:05.063Z,0.00
2022-09-06T17:32:32.213Z,0.00
2022-09-06T17:34:58.487Z,0.00
2022-09-06T17:37:24.887Z,0.00
2022-09-06T17:39:51.554Z,0.00
2022-09-06T17:42:17.900Z,0.00
2022-09-06T17:44:44.437Z,0.03
2022-09-06T17:47:13.310Z,0.10
2022-09-06T17:49:40.237Z,0.00
2022-09-06T17:52:06.548Z,0.17
2022-09-06T17:54:32.883Z,0.10
2022-09-06T17:56:59.244Z,0.10
2022-09-06T17:59:25.773Z,0.10
2022-09-06T18:01:52.474Z,0.10
2022-09-06T18:04:19.450Z,0.10
2022-09-06T18:06:46.835Z,0.10
2022-09-06T18:09:15.406Z,0.10
2022-09-06T18:11:42.419Z,0.10
2022-09-06T18:14:10.358Z,0.10
2022-09-06T18:16:37.689Z,0.10
2022-09-06T18:19:05.002Z,0.10
2022-09-06T18:21:32.500Z,0.10
2022-09-06T18:23:58.837Z,0.10
2022-09-06T18:26:25.962Z,0.10
2022-09-06T18:28:55.482Z,0.20
2022-09-06T18:31:23.204Z,0.20
2022-09-06T18:33:49.587Z,0.20
2022-09-06T18:36:16.272Z,0.20
2022-09-06T18:38:45.400Z,0.20
2022-09-06T18:41:33.266Z,0.27
2022-09-06T18:44:02.504Z,0.17
2022-09-06T18:46:29.909Z,0.20
2022-09-06T18:48:56.310Z,0.20
2022-09-06T18:51:22.696Z,0.20
2022-09-06T18:53:49.056Z,0.20
2022-09-06T18:56:15.590Z,0.40
2022-09-06T18:58:42.466Z,0.30
2022-09-06T19:01:10.142Z,0.20
2022-09-06T19:03:37.258Z,0.20
2022-09-06T19:06:04.600Z,0.27
2022-09-06T19:08:30.980Z,0.20
2022-09-06T19:11:01.382Z,0.30
2022-09-06T19:13:29.264Z,0.20
2022-09-06T19:15:56.598Z,0.20
2022-09-06T19:18:23.582Z,0.30
2022-09-06T19:21:19.544Z,0.30
2022-09-06T19:23:49.564Z,0.30
2022-09-06T19:26:17.939Z,0.30
2022-09-06T19:28:53.619Z,0.30
2022-09-06T19:31:20.363Z,0.30
2022-09-06T19:33:47.892Z,0.30
2022-09-06T19:36:14.455Z,0.30
2022-09-06T19:41:27.982Z,0.30
2022-09-06T19:43:55.672Z,0.60
2022-09-06T19:46:22.430Z,0.30
2022-09-06T19:48:50.628Z,0.30
2022-09-06T19:51:17.634Z,0.30
2022-09-06T19:53:47.026Z,0.30
2022-09-06T19:56:17.841Z,0.40
2022-09-06T19:58:44.958Z,0.40
2022-09-06T20:01:12.741Z,0.40
2022-09-06T20:03:39.643Z,0.50
2022-09-06T20:06:08.922Z,0.33
2022-09-06T20:08:35.951Z,0.40
2022-09-06T20:11:03.437Z,0.40
2022-09-06T20:13:30.004Z,0.40
2022-09-06T20:15:56.695Z,0.40
2022-09-06T20:18:23.342Z,0.40
2022-09-06T20:20:53.656Z,0.40
2022-09-06T20:23:20.091Z,0.50
2022-09-06T20:25:47.806Z,0.40
2022-09-06T20:28:15.191Z,0.50
2022-09-06T20:30:42.162Z,0.40
2022-09-06T20:33:08.457Z,0.50
2022-09-06T20:35:34.764Z,0.50
2022-09-06T20:38:01.040Z,0.50
2022-09-06T20:40:27.377Z,0.50
2022-09-06T20:42:53.704Z,0.50
2022-09-06T20:45:20.265Z,0.50
2022-09-06T20:47:46.626Z,0.50
2022-09-06T20:50:13.073Z,0.50
2022-09-06T20:52:39.425Z,0.50
2022-09-06T20:55:06.548Z,0.50
2022-09-06T20:57:32.915Z,0.50
2022-09-06T20:59:59.927Z,0.57
2022-09-06T21:02:26.660Z,0.50
2022-09-06T21:04:53.340Z,0.60
2022-09-06T21:07:19.700Z,0.60
2022-09-06T21:09:46.054Z,0.60
2022-09-06T21:12:12.313Z,0.70
2022-09-06T21:14:38.558Z,0.70
2022-09-06T21:17:04.834Z,0.70
2022-09-06T21:19:31.313Z,0.60
2022-09-06T21:21:57.599Z,0.70
2022-09-06T21:24:23.864Z,0.80
2022-09-06T21:26:50.119Z,0.80
2022-09-06T21:29:16.347Z,0.80
2022-09-06T21:31:42.731Z,0.80
2022-09-06T21:34:15.614Z,0.83
2022-09-06T21:36:43.516Z,0.80
2022-09-06T21:39:10.495Z,0.80
2022-09-06T21:41:37.615Z,0.90
2022-09-06T21:44:04.703Z,0.80
2022-09-06T21:46:33.564Z,0.80
2022-09-06T21:49:04.406Z,1.30
2022-09-06T21:51:31.326Z,0.80
2022-09-06T21:53:57.941Z,0.90
2022-09-06T21:56:24.437Z,0.87
2022-09-06T21:58:51.947Z,0.90
2022-09-06T22:01:19.249Z,0.80
2022-09-06T22:03:46.257Z,0.90
2022-09-06T22:06:13.875Z,0.90
2022-09-06T22:08:43.101Z,0.90
2022-09-06T22:11:14.070Z,0.80
2022-09-06T22:13:40.837Z,0.80
2022-09-06T22:16:08.182Z,0.80
2022-09-06T22:18:35.193Z,0.80
2022-09-06T22:21:02.467Z,0.80
2022-09-06T22:23:28.885Z,0.90
2022-09-06T22:26:02.668Z,0.80
2022-09-06T22:28:28.997Z,0.87
2022-09-06T22:30:55.413Z,0.90
2022-09-06T22:33:21.826Z,0.90
2022-09-06T22:35:48.483Z,0.90
2022-09-06T22:38:14.864Z,0.90
2022-09-06T22:40:41.117Z,0.90
2022-09-06T22:43:07.376Z,0.97
2022-09-06T22:45:33.816Z,0.90
2022-09-06T22:48:00.117Z,0.90
2022-09-06T22:50:26.782Z,0.97
2022-09-06T22:52:53.124Z,0.90
2022-09-06T22:55:19.364Z,0.90
2022-09-06T22:57:45.654Z,0.90
2022-09-06T23:00:12.230Z,0.90
2022-09-06T23:02:38.508Z,0.90
2022-09-06T23:05:04.959Z,0.90
2022-09-06T23:07:31.218Z,0.90
2022-09-06T23:09:57.859Z,0.90
2022-09-06T23:12:24.127Z,0.90
2022-09-06T23:14:50.617Z,0.90
2022-09-06T23:17:17.007Z,1.00
2022-09-06T23:19:43.280Z,0.90
2022-09-06T23:22:11.617Z,1.00
2022-09-06T23:24:37.928Z,1.00
2022-09-06T23:27:05.585Z,1.00
2022-09-06T23:29:32.094Z,1.00
2022-09-06T23:31:58.445Z,1.10
2022-09-06T23:34:24.810Z,1.00
2022-09-06T23:36:52.701Z,1.10
2022-09-06T23:39:19.024Z,1.10
2022-09-06T23:41:45.299Z,1.30
2022-09-06T23:44:11.612Z,1.50
2022-09-06T23:46:38.073Z,1.30
2022-09-06T23:49:04.569Z,1.50
2022-09-06T23:51:30.925Z,1.43
2022-09-06T23:53:58.276Z,1.57
2022-09-06T23:56:24.554Z,3.10
2022-09-06T23:58:50.843Z,1.50
